Time;durP1;ratioP1;P1;durP2;ratioP2;P2;SDS_P1;SDS_P2;PMS_P1;PMS_P2;Temp;Humidity;BMP_temperature;BMP_pressure;BME280_temperature;BME280_humidity;BME280_pressure;Samples;Min_cycle;Max_cycle;Signal;HPM_P1;HPM_P2
2022/03/28 00:20:18;;;;;;;24.90;9.98;;;;;;;;;;4954190;28;20069;-91
2022/03/28 00:22:52;;;;;;;24.67;12.05;;;;;;;;;;4966788;28;20047;-92
2022/03/28 00:25:18;;;;;;;32.80;13.27;;;;;;;;;;4960788;28;20046;-92
2022/03/28 00:27:51;;;;;;;27.58;9.82;;;;;;;;;;4958220;28;20050;-92
2022/03/28 00:30:18;;;;;;;22.92;10.05;;;;;;;;;;4953215;28;20039;-91
2022/03/28 00:32:54;;;;;;;26.00;9.85;;;;;;;;;;4968253;28;20122;-93
2022/03/28 00:35:22;;;;;;;28.02;10.65;;;;;;;;;;4952177;28;20098;-91
2022/03/28 00:37:51;;;;;;;25.90;10.57;;;;;;;;;;4957951;29;20039;-90
2022/03/28 00:40:31;;;;;;;23.83;9.20;;;;;;;;;;4954198;29;20039;-91
2022/03/28 00:42:58;;;;;;;24.83;10.32;;;;;;;;;;4954854;28;20034;-91
2022/03/28 00:45:35;;;;;;;18.33;8.93;;;;;;;;;;4957394;28;20047;-89
2022/03/28 00:48:02;;;;;;;26.38;9.48;;;;;;;;;;4946351;29;20031;-90
2022/03/28 00:50:29;;;;;;;21.35;8.77;;;;;;;;;;4958150;29;20034;-91
2022/03/28 00:52:56;;;;;;;23.15;9.50;;;;;;;;;;4944211;29;20123;-90
2022/03/28 00:55:23;;;;;;;19.25;8.15;;;;;;;;;;4950914;29;20538;-90
2022/03/28 01:00:55;;;;;;;20.63;7.93;;;;;;;;;;4958846;29;20057;-91
2022/03/28 01:03:38;;;;;;;19.92;7.78;;;;;;;;;;4970585;28;20035;-90
2022/03/28 01:06:05;;;;;;;18.88;7.65;;;;;;;;;;4938495;29;20043;-91
2022/03/28 01:08:33;;;;;;;22.02;8.43;;;;;;;;;;4957340;28;20039;-91
2022/03/28 01:11:11;;;;;;;16.88;7.28;;;;;;;;;;4954927;29;20031;-91
2022/03/28 01:13:40;;;;;;;18.08;6.55;;;;;;;;;;4960539;28;20074;-91
2022/03/28 01:22:37;;;;;;;17.75;7.45;;;;;;;;;;4939809;29;20027;-92
2022/03/28 01:31:11;;;;;;;15.80;7.25;;;;;;;;;;4958883;29;20034;-92
2022/03/28 01:34:01;;;;;;;16.13;6.93;;;;;;;;;;4957556;29;20371;-91
2022/03/28 01:36:29;;;;;;;15.05;7.70;;;;;;;;;;4958552;29;20110;-90
2022/03/28 01:45:11;;;;;;;22.85;9.02;;;;;;;;;;4958208;28;20034;-91
2022/03/28 01:50:41;;;;;;;21.80;9.02;;;;;;;;;;4958649;29;20094;-90
2022/03/28 01:56:11;;;;;;;23.98;8.65;;;;;;;;;;4957918;28;20030;-91
2022/03/28 01:58:56;;;;;;;15.98;7.82;;;;;;;;;;4956898;29;20036;-92
2022/03/28 02:01:22;;;;;;;16.80;5.72;;;;;;;;;;4940884;29;20039;-92
2022/03/28 02:03:53;;;;;;;13.55;6.10;;;;;;;;;;4972973;28;20071;-92
2022/03/28 02:06:19;;;;;;;18.67;6.32;;;;;;;;;;4975534;28;20030;-90
2022/03/28 02:08:46;;;;;;;19.38;6.75;;;;;;;;;;4960262;28;20561;-91
2022/03/28 02:11:14;;;;;;;13.55;4.97;;;;;;;;;;4952621;29;20052;-90
2022/03/28 02:58:29;;;;;;;34.90;6.78;;;;;;;;;;4968371;28;20097;-91
2022/03/28 03:00:55;;;;;;;34.80;7.10;;;;;;;;;;4953611;29;20525;-92
2022/03/28 03:03:25;;;;;;;37.03;7.88;;;;;;;;;;4957003;28;20100;-94
2022/03/28 03:05:51;;;;;;;32.25;6.78;;;;;;;;;;4938582;29;20122;-93
2022/03/28 03:08:17;;;;;;;30.80;6.43;;;;;;;;;;4938833;28;20186;-93
2022/03/28 03:10:44;;;;;;;19.17;6.22;;;;;;;;;;4939107;29;20036;-89
2022/03/28 03:13:48;;;;;;;32.88;7.00;;;;;;;;;;4938512;29;20032;-91
2022/03/28 03:16:15;;;;;;;39.70;6.40;;;;;;;;;;4891890;29;20143;-93
2022/03/28 03:18:42;;;;;;;44.30;7.90;;;;;;;;;;4894073;29;20088;-92
2022/03/28 03:21:09;;;;;;;25.50;8.63;;;;;;;;;;4887860;29;20029;-92
2022/03/28 03:23:37;;;;;;;34.75;6.80;;;;;;;;;;4891434;28;20042;-93
2022/03/28 03:26:05;;;;;;;26.77;6.30;;;;;;;;;;4939131;29;20118;-93
2022/03/28 03:28:31;;;;;;;34.05;5.95;;;;;;;;;;4955440;28;20035;-92
2022/03/28 03:30:58;;;;;;;39.67;6.53;;;;;;;;;;4955685;29;20050;-93
2022/03/28 03:33:28;;;;;;;30.90;6.20;;;;;;;;;;4939520;29;20040;-93
2022/03/28 03:35:54;;;;;;;29.75;5.80;;;;;;;;;;4938877;29;20035;-93
2022/03/28 03:41:24;;;;;;;38.10;6.25;;;;;;;;;;4956586;28;20527;-92
2022/03/28 03:44:06;;;;;;;20.55;5.20;;;;;;;;;;4964198;28;20129;-93
2022/03/28 03:46:32;;;;;;;30.23;5.65;;;;;;;;;;4946468;29;20047;-94
2022/03/28 03:48:59;;;;;;;21.05;5.60;;;;;;;;;;4965518;28;20027;-90
2022/03/28 03:51:25;;;;;;;27.48;6.57;;;;;;;;;;4941123;29;20140;-92
2022/03/28 03:53:52;;;;;;;28.90;5.10;;;;;;;;;;4948499;29;20040;-94
2022/03/28 03:56:18;;;;;;;28.67;5.53;;;;;;;;;;4972709;28;20055;-94
2022/03/28 03:58:44;;;;;;;28.08;6.00;;;;;;;;;;4963259;28;20459;-94
2022/03/28 04:01:21;;;;;;;29.15;5.68;;;;;;;;;;4927018;29;20399;-92
2022/03/28 04:03:48;;;;;;;32.55;5.85;;;;;;;;;;4927364;29;20047;-94
2022/03/28 04:06:16;;;;;;;26.05;5.68;;;;;;;;;;4926782;29;20059;-93
2022/03/28 04:08:42;;;;;;;25.13;5.65;;;;;;;;;;4935323;29;20038;-93
2022/03/28 04:11:08;;;;;;;35.33;6.22;;;;;;;;;;4927617;29;20027;-92
2022/03/28 04:13:35;;;;;;;32.25;6.18;;;;;;;;;;4936517;29;20480;-90
2022/03/28 04:16:02;;;;;;;28.25;6.03;;;;;;;;;;4939156;29;20040;-93
2022/03/28 04:18:44;;;;;;;31.65;6.03;;;;;;;;;;4923587;29;20122;-92
2022/03/28 04:21:10;;;;;;;29.48;5.80;;;;;;;;;;4953068;29;20047;-93
2022/03/28 04:23:36;;;;;;;33.60;6.00;;;;;;;;;;4956365;29;20435;-93
2022/03/28 04:29:06;;;;;;;27.83;4.65;;;;;;;;;;4945939;29;20030;-93
2022/03/28 04:31:37;;;;;;;27.48;5.30;;;;;;;;;;4927860;29;20038;-94
2022/03/28 04:34:03;;;;;;;27.42;6.18;;;;;;;;;;4939361;29;20391;-93
2022/03/28 04:36:49;;;;;;;13.82;4.28;;;;;;;;;;4938823;29;20064;-92
2022/03/28 04:39:16;;;;;;;24.52;5.10;;;;;;;;;;4934881;29;20068;-94
2022/03/28 04:41:55;;;;;;;22.83;5.15;;;;;;;;;;4945500;29;20102;-93
2022/03/28 04:44:21;;;;;;;33.50;6.25;;;;;;;;;;4933491;29;20032;-94
2022/03/28 04:46:50;;;;;;;25.90;5.75;;;;;;;;;;4938639;29;20514;-93
2022/03/28 04:49:17;;;;;;;21.75;5.38;;;;;;;;;;4922127;29;20115;-93
2022/03/28 04:51:46;;;;;;;20.83;4.43;;;;;;;;;;4922182;29;20448;-93
2022/03/28 04:54:12;;;;;;;28.88;5.53;;;;;;;;;;4942096;29;20122;-93
2022/03/28 05:02:09;;;;;;;22.15;6.40;;;;;;;;;;4966975;28;20110;-93
2022/03/28 05:04:36;;;;;;;22.55;5.95;;;;;;;;;;4976404;28;20446;-94
2022/03/28 05:07:03;;;;;;;23.98;6.20;;;;;;;;;;4966668;28;20493;-93
2022/03/28 05:09:29;;;;;;;23.67;5.90;;;;;;;;;;4979925;28;20035;-93
2022/03/28 05:11:56;;;;;;;25.92;6.40;;;;;;;;;;4988944;28;20038;-93
2022/03/28 05:14:22;;;;;;;26.13;6.30;;;;;;;;;;4985388;28;20066;-93
2022/03/28 05:16:53;;;;;;;29.98;6.97;;;;;;;;;;4983137;28;20478;-93
2022/03/28 05:19:19;;;;;;;32.58;6.88;;;;;;;;;;4976810;28;20509;-92
2022/03/28 05:22:07;;;;;;;28.50;6.57;;;;;;;;;;4990676;28;20397;-93
2022/03/28 05:24:33;;;;;;;23.83;5.85;;;;;;;;;;4975690;28;20039;-93
2022/03/28 05:27:18;;;;;;;31.80;7.30;;;;;;;;;;4960429;28;20058;-93
2022/03/28 05:29:45;;;;;;;24.77;6.75;;;;;;;;;;4977382;28;20497;-93
2022/03/28 05:32:21;;;;;;;30.02;7.10;;;;;;;;;;4977530;28;20057;-93
2022/03/28 05:34:48;;;;;;;24.58;6.13;;;;;;;;;;4970593;28;20035;-91
2022/03/28 05:37:30;;;;;;;23.35;5.97;;;;;;;;;;4974058;28;20039;-92
2022/03/28 05:39:57;;;;;;;26.70;6.50;;;;;;;;;;4975861;28;20035;-91
2022/03/28 05:42:46;;;;;;;24.60;6.70;;;;;;;;;;4976107;28;20398;-94
2022/03/28 05:45:12;;;;;;;20.58;6.65;;;;;;;;;;4975362;28;20127;-92
2022/03/28 05:47:54;;;;;;;19.17;6.85;;;;;;;;;;4976928;28;20035;-92
2022/03/28 05:50:21;;;;;;;23.30;6.90;;;;;;;;;;4975222;28;20131;-93
2022/03/28 05:52:48;;;;;;;18.50;6.85;;;;;;;;;;4975875;28;20066;-92
2022/03/28 05:55:14;;;;;;;22.20;5.97;;;;;;;;;;4974345;28;20102;-93
2022/03/28 05:57:41;;;;;;;19.45;6.88;;;;;;;;;;4975967;28;20034;-93
2022/03/28 06:00:23;;;;;;;21.77;6.93;;;;;;;;;;4987425;28;20039;-93
2022/03/28 06:02:51;;;;;;;27.63;6.95;;;;;;;;;;4975645;28;20042;-92
2022/03/28 06:05:17;;;;;;;22.55;5.78;;;;;;;;;;4973175;28;20069;-94
2022/03/28 06:07:43;;;;;;;23.08;6.00;;;;;;;;;;4964055;28;20062;-92
2022/03/28 06:10:12;;;;;;;25.13;6.63;;;;;;;;;;4975845;28;20045;-93
2022/03/28 06:12:44;;;;;;;21.90;6.03;;;;;;;;;;4981427;28;20031;-91
2022/03/28 06:15:10;;;;;;;22.30;6.22;;;;;;;;;;4977725;28;20435;-93
2022/03/28 06:17:44;;;;;;;24.02;6.15;;;;;;;;;;4981114;28;20042;-94
2022/03/28 06:20:11;;;;;;;16.52;5.30;;;;;;;;;;4978171;28;20034;-93
2022/03/28 06:22:37;;;;;;;19.08;6.75;;;;;;;;;;4979656;28;20078;-93
2022/03/28 06:25:05;;;;;;;18.00;5.45;;;;;;;;;;4973604;28;20035;-94
2022/03/28 06:27:31;;;;;;;31.60;5.63;;;;;;;;;;4631325;28;9999682;-93
2022/03/28 06:29:57;;;;;;;20.88;6.05;;;;;;;;;;4974895;28;20039;-93
2022/03/28 06:32:45;;;;;;;17.33;6.60;;;;;;;;;;4974494;28;20382;-94
2022/03/28 06:35:11;;;;;;;18.30;5.65;;;;;;;;;;4975135;28;20043;-93
2022/03/28 06:37:37;;;;;;;24.55;6.85;;;;;;;;;;4975251;28;20039;-94
2022/03/28 06:40:24;;;;;;;20.80;5.28;;;;;;;;;;4974963;28;20034;-94
2022/03/28 06:42:50;;;;;;;18.17;5.53;;;;;;;;;;4975374;28;20041;-93
2022/03/28 06:45:17;;;;;;;23.83;5.68;;;;;;;;;;4974817;28;20498;-93
2022/03/28 06:47:54;;;;;;;22.25;7.40;;;;;;;;;;4976701;28;20616;-93
2022/03/28 06:50:21;;;;;;;26.52;7.25;;;;;;;;;;4982758;28;20355;-94
2022/03/28 06:52:53;;;;;;;19.25;6.30;;;;;;;;;;4967616;28;20524;-92
2022/03/28 06:55:19;;;;;;;19.38;6.10;;;;;;;;;;4974475;28;20031;-92
2022/03/28 06:57:55;;;;;;;25.60;6.50;;;;;;;;;;4986591;28;20054;-92
2022/03/28 07:05:28;;;;;;;31.42;8.48;;;;;;;;;;4974601;28;20453;-93
2022/03/28 07:08:08;;;;;;;39.38;11.40;;;;;;;;;;4975352;28;20053;-95
2022/03/28 07:10:34;;;;;;;47.50;12.15;;;;;;;;;;4974286;28;20098;-94
2022/03/28 07:13:01;;;;;;;52.60;12.70;;;;;;;;;;4974592;28;20486;-92
2022/03/28 07:15:27;;;;;;;50.05;14.40;;;;;;;;;;4974681;28;20042;-90
2022/03/28 07:18:20;;;;;;;46.75;13.30;;;;;;;;;;4974518;28;20466;-91
2022/03/28 07:20:46;;;;;;;58.58;14.38;;;;;;;;;;4963131;28;20089;-91
2022/03/28 07:23:13;;;;;;;48.38;14.38;;;;;;;;;;4975675;28;20035;-91
2022/03/28 07:25:46;;;;;;;57.70;15.48;;;;;;;;;;4974316;28;20542;-91
2022/03/28 07:28:13;;;;;;;47.70;13.52;;;;;;;;;;4975910;28;20034;-90
2022/03/28 07:31:05;;;;;;;42.13;14.02;;;;;;;;;;4974330;28;20093;-91
2022/03/28 07:33:46;;;;;;;53.97;15.85;;;;;;;;;;4905964;29;20032;-91
2022/03/28 07:36:12;;;;;;;54.33;15.98;;;;;;;;;;4957644;28;20038;-90
2022/03/28 07:39:09;;;;;;;44.72;13.23;;;;;;;;;;4957993;28;20066;-92
2022/03/28 07:41:36;;;;;;;59.22;14.35;;;;;;;;;;4975732;28;20513;-91
2022/03/28 07:44:02;;;;;;;43.67;16.08;;;;;;;;;;4974354;28;20489;-92
2022/03/28 07:46:30;;;;;;;43.63;14.88;;;;;;;;;;4974723;28;20034;-91
2022/03/28 07:48:56;;;;;;;49.47;15.45;;;;;;;;;;4974438;28;20490;-92
2022/03/28 07:51:22;;;;;;;46.28;12.70;;;;;;;;;;4990587;28;20030;-93
2022/03/28 07:54:06;;;;;;;39.35;13.80;;;;;;;;;;4981545;28;20035;-91
2022/03/28 07:56:32;;;;;;;36.38;12.23;;;;;;;;;;4974265;28;20039;-92
2022/03/28 07:58:59;;;;;;;48.38;13.23;;;;;;;;;;4974454;28;20031;-92
2022/03/28 08:04:32;;;;;;;49.80;13.77;;;;;;;;;;4975040;28;20122;-92
2022/03/28 08:10:06;;;;;;;47.55;13.43;;;;;;;;;;4975927;28;20022;-92
2022/03/28 08:12:47;;;;;;;43.30;12.45;;;;;;;;;;4974352;28;20395;-92
2022/03/28 08:15:15;;;;;;;47.33;13.95;;;;;;;;;;4974632;28;20035;-92
2022/03/28 08:17:41;;;;;;;51.15;14.32;;;;;;;;;;4974478;28;20039;-91
2022/03/28 08:23:12;;;;;;;34.10;12.88;;;;;;;;;;4975976;28;20430;-91
2022/03/28 08:28:44;;;;;;;40.35;15.70;;;;;;;;;;4975581;28;20070;-92
2022/03/28 08:34:13;;;;;;;46.38;17.38;;;;;;;;;;4975972;28;20030;-92
2022/03/28 08:39:44;;;;;;;43.00;14.90;;;;;;;;;;4975566;28;20516;-92
2022/03/28 08:45:14;;;;;;;38.03;15.25;;;;;;;;;;4975079;28;20374;-92
2022/03/28 08:50:49;;;;;;;38.90;15.00;;;;;;;;;;4975378;28;20053;-92
2022/03/28 08:56:19;;;;;;;31.23;11.05;;;;;;;;;;4977374;28;20109;-92
2022/03/28 09:01:55;;;;;;;35.63;12.27;;;;;;;;;;4978859;28;20057;-92
2022/03/28 12:06:57;;;;;;;28.38;9.48;;;;;;;;;;6286217;22;1607616;-90
2022/03/28 12:09:23;;;;;;;25.15;8.90;;;;;;;;;;6237652;22;20016;-91
2022/03/28 12:11:54;;;;;;;21.90;7.60;;;;;;;;;;6258400;22;20049;-91
2022/03/28 12:14:21;;;;;;;18.27;6.22;;;;;;;;;;6258940;22;20018;-91
2022/03/28 12:17:16;;;;;;;25.80;6.50;;;;;;;;;;6258527;22;19999;-90
2022/03/28 12:19:42;;;;;;;22.50;6.57;;;;;;;;;;6258683;22;20083;-89
2022/03/28 12:22:14;;;;;;;24.05;6.93;;;;;;;;;;6257880;22;20003;-89
2022/03/28 12:24:53;;;;;;;33.28;8.07;;;;;;;;;;6258341;22;20437;-90
2022/03/28 12:27:23;;;;;;;31.00;9.70;;;;;;;;;;6257328;22;20091;-91
2022/03/28 12:29:53;;;;;;;32.05;10.07;;;;;;;;;;6257725;22;20099;-90
2022/03/28 12:32:21;;;;;;;30.05;9.35;;;;;;;;;;6257368;22;20209;-90
2022/03/28 12:34:47;;;;;;;31.52;9.10;;;;;;;;;;6257325;22;20010;-90
2022/03/28 12:37:16;;;;;;;26.85;7.63;;;;;;;;;;6257017;22;20077;-89
2022/03/28 12:39:44;;;;;;;28.08;6.88;;;;;;;;;;6258237;22;20079;-91
2022/03/28 12:42:24;;;;;;;26.45;7.30;;;;;;;;;;6233302;22;20012;-89
2022/03/28 12:44:54;;;;;;;23.05;7.93;;;;;;;;;;6258438;22;20091;-90
2022/03/28 12:47:20;;;;;;;23.42;8.25;;;;;;;;;;6258163;22;20008;-89
2022/03/28 12:49:47;;;;;;;32.97;9.55;;;;;;;;;;6257713;22;20008;-90
2022/03/28 12:52:39;;;;;;;28.48;8.55;;;;;;;;;;6258074;22;20013;-91
2022/03/28 12:55:06;;;;;;;24.92;7.68;;;;;;;;;;6258149;22;20370;-90
2022/03/28 12:58:02;;;;;;;19.23;7.63;;;;;;;;;;6258444;22;20004;-90
2022/03/28 13:00:29;;;;;;;28.90;8.18;;;;;;;;;;6257642;22;20031;-92
2022/03/28 13:03:03;;;;;;;33.13;8.40;;;;;;;;;;6257707;22;20423;-90
2022/03/28 13:05:30;;;;;;;29.17;10.13;;;;;;;;;;6257229;22;20015;-90
2022/03/28 13:08:06;;;;;;;26.25;10.30;;;;;;;;;;6238236;22;20020;-91
2022/03/28 13:10:34;;;;;;;33.20;10.13;;;;;;;;;;6272879;22;20003;-91
2022/03/28 13:13:01;;;;;;;29.63;10.40;;;;;;;;;;6275834;22;20012;-90
2022/03/28 13:15:45;;;;;;;34.28;11.27;;;;;;;;;;6276648;22;20061;-89
2022/03/28 13:18:15;;;;;;;37.60;15.52;;;;;;;;;;6277816;22;20038;-91
2022/03/28 13:20:53;;;;;;;33.63;15.85;;;;;;;;;;6276760;22;20091;-91
2022/03/28 13:23:21;;;;;;;40.15;18.23;;;;;;;;;;6276790;22;20658;-90
2022/03/28 13:25:52;;;;;;;42.67;17.65;;;;;;;;;;6276457;22;20003;-91
2022/03/28 13:28:23;;;;;;;35.10;13.73;;;;;;;;;;6276013;22;20011;-90
2022/03/28 13:31:07;;;;;;;39.33;15.52;;;;;;;;;;6276066;22;20031;-89
2022/03/28 13:33:33;;;;;;;34.70;15.00;;;;;;;;;;6275856;22;20007;-90
2022/03/28 13:36:02;;;;;;;33.42;14.15;;;;;;;;;;6275579;22;20070;-91
2022/03/28 13:38:31;;;;;;;29.02;14.02;;;;;;;;;;6275469;22;19999;-92
2022/03/28 13:41:06;;;;;;;29.67;13.15;;;;;;;;;;6276197;22;20457;-94
2022/03/28 13:43:33;;;;;;;33.25;13.35;;;;;;;;;;6277930;22;20007;-94
2022/03/28 13:46:08;;;;;;;31.13;12.88;;;;;;;;;;6276633;22;20090;-94
2022/03/28 13:48:34;;;;;;;32.28;13.05;;;;;;;;;;6276178;22;20012;-93
2022/03/28 13:51:23;;;;;;;37.30;14.07;;;;;;;;;;6251219;22;20069;-92
2022/03/28 13:53:50;;;;;;;28.13;10.90;;;;;;;;;;6277314;22;20012;-93
2022/03/28 13:56:28;;;;;;;25.20;11.52;;;;;;;;;;6276687;22;20436;-93
2022/03/28 13:58:55;;;;;;;31.55;13.27;;;;;;;;;;6277444;22;20027;-94
2022/03/28 14:01:28;;;;;;;34.08;13.55;;;;;;;;;;6277814;22;20419;-93
2022/03/28 14:03:57;;;;;;;33.90;12.80;;;;;;;;;;6279647;22;20004;-94
2022/03/28 14:21:11;;;;;;;49.42;16.95;;;;;;;;;;6333994;22;20022;-92
2022/03/28 14:23:44;;;;;;;40.20;15.70;;;;;;;;;;6337522;22;20027;-94
2022/03/28 14:26:13;;;;;;;49.13;19.00;;;;;;;;;;6337755;22;20007;-94
2022/03/28 14:28:45;;;;;;;40.90;15.55;;;;;;;;;;6338015;22;20026;-92
2022/03/28 14:31:12;;;;;;;55.30;20.52;;;;;;;;;;6339074;22;19999;-92
2022/03/28 14:33:47;;;;;;;49.15;20.55;;;;;;;;;;6338078;22;20086;-94
2022/03/28 14:36:14;;;;;;;50.13;21.70;;;;;;;;;;6337671;22;20038;-92
2022/03/28 14:38:43;;;;;;;61.40;25.67;;;;;;;;;;6338433;22;20006;-94
2022/03/28 14:41:10;;;;;;;50.80;21.35;;;;;;;;;;6336989;22;20011;-95
2022/03/28 14:43:38;;;;;;;39.88;17.17;;;;;;;;;;6339308;22;20007;-92
2022/03/28 14:48:54;;;;;;;39.72;15.30;;;;;;;;;;6339812;22;20472;-91
2022/03/28 14:51:21;;;;;;;39.53;14.23;;;;;;;;;;6339573;22;20015;-91
2022/03/28 14:53:49;;;;;;;42.47;15.60;;;;;;;;;;6338528;22;20085;-93
2022/03/28 14:56:15;;;;;;;42.75;14.93;;;;;;;;;;6339202;22;20442;-94
2022/03/28 14:58:50;;;;;;;42.88;16.48;;;;;;;;;;6341366;22;19999;-91
2022/03/28 15:01:16;;;;;;;41.45;18.17;;;;;;;;;;6339309;22;20010;-92
2022/03/28 15:03:47;;;;;;;41.03;18.10;;;;;;;;;;6337777;22;20010;-92
2022/03/28 15:06:14;;;;;;;43.80;18.90;;;;;;;;;;6336576;22;20045;-93
2022/03/28 15:08:48;;;;;;;43.63;19.48;;;;;;;;;;6311914;22;20019;-93
2022/03/28 15:11:15;;;;;;;47.20;21.58;;;;;;;;;;6335282;22;20050;-93
2022/03/28 15:13:56;;;;;;;44.17;20.63;;;;;;;;;;6335835;22;20097;-91
2022/03/28 15:16:22;;;;;;;47.05;22.35;;;;;;;;;;6338149;22;20041;-92
2022/03/28 15:18:57;;;;;;;47.58;22.95;;;;;;;;;;6337890;22;19999;-93
2022/03/28 15:21:33;;;;;;;53.08;23.05;;;;;;;;;;6337730;22;20053;-91
2022/03/28 15:24:00;;;;;;;65.05;22.90;;;;;;;;;;6337312;22;20077;-91
2022/03/28 15:26:30;;;;;;;46.00;23.00;;;;;;;;;;6338280;22;20483;-91
2022/03/28 15:28:56;;;;;;;55.60;23.67;;;;;;;;;;6338532;22;20404;-91
2022/03/28 15:31:25;;;;;;;53.97;25.08;;;;;;;;;;6336866;22;20003;-90
2022/03/28 15:33:52;;;;;;;51.08;24.17;;;;;;;;;;6337527;22;20693;-89
2022/03/28 15:36:27;;;;;;;49.63;23.98;;;;;;;;;;6337506;22;20100;-90
2022/03/28 15:38:54;;;;;;;55.42;24.35;;;;;;;;;;6337175;22;20133;-89
2022/03/28 15:41:20;;;;;;;58.22;23.88;;;;;;;;;;6338873;22;20161;-91
2022/03/28 15:43:47;;;;;;;50.50;23.15;;;;;;;;;;6337327;22;20006;-90
2022/03/28 15:46:21;;;;;;;56.90;23.08;;;;;;;;;;6337680;22;20419;-93
2022/03/28 15:48:48;;;;;;;55.20;25.50;;;;;;;;;;6337283;22;20010;-91
2022/03/28 15:51:20;;;;;;;66.63;29.25;;;;;;;;;;6337339;22;20003;-92
2022/03/28 15:53:47;;;;;;;62.72;28.88;;;;;;;;;;6337234;22;20014;-91
2022/03/28 15:56:15;;;;;;;67.07;30.63;;;;;;;;;;6337531;22;20014;-93
2022/03/28 15:58:44;;;;;;;81.18;35.25;;;;;;;;;;6337311;22;20003;-91
2022/03/28 16:03:59;;;;;;;85.65;35.55;;;;;;;;;;6338955;22;20088;-92
2022/03/28 16:06:26;;;;;;;93.20;38.60;;;;;;;;;;6337106;22;20406;-92
2022/03/28 16:08:52;;;;;;;85.65;37.63;;;;;;;;;;6338537;22;20002;-91
2022/03/28 16:11:20;;;;;;;89.05;39.85;;;;;;;;;;6336268;22;20057;-92
2022/03/28 16:13:46;;;;;;;68.18;34.00;;;;;;;;;;6336762;22;20387;-91
2022/03/28 16:19:03;;;;;;;82.70;38.45;;;;;;;;;;6349449;22;20464;-92
2022/03/28 16:21:30;;;;;;;89.25;38.10;;;;;;;;;;6333859;22;20092;-92
2022/03/28 16:23:56;;;;;;;86.60;36.85;;;;;;;;;;6310120;22;20011;-91
2022/03/28 16:26:23;;;;;;;78.20;37.20;;;;;;;;;;6337550;22;20594;-90
2022/03/28 16:29:06;;;;;;;75.85;35.05;;;;;;;;;;6337438;22;20346;-93
2022/03/28 16:31:32;;;;;;;66.03;31.90;;;;;;;;;;6337964;22;20006;-93
2022/03/28 16:34:08;;;;;;;71.90;32.58;;;;;;;;;;6338886;22;20345;-92
2022/03/28 16:36:35;;;;;;;64.30;31.20;;;;;;;;;;6338208;22;20011;-92
2022/03/28 16:42:05;;;;;;;69.90;31.10;;;;;;;;;;6339575;22;20009;-93
2022/03/28 16:44:34;;;;;;;76.40;31.83;;;;;;;;;;6340098;22;20066;-92
2022/03/28 16:47:01;;;;;;;61.65;29.67;;;;;;;;;;6338567;22;20235;-93
2022/03/28 16:49:37;;;;;;;68.82;28.70;;;;;;;;;;6338643;22;20002;-93
2022/03/28 16:52:03;;;;;;;59.50;27.63;;;;;;;;;;6340307;22;20059;-93
2022/03/28 16:54:55;;;;;;;68.82;28.17;;;;;;;;;;6340474;22;20009;-94
2022/03/28 16:57:22;;;;;;;52.03;26.20;;;;;;;;;;6337145;22;20006;-92
2022/03/28 16:59:49;;;;;;;57.35;27.67;;;;;;;;;;6338224;22;20052;-91
2022/03/28 17:02:23;;;;;;;59.83;27.73;;;;;;;;;;6337930;22;20009;-94
2022/03/28 17:04:49;;;;;;;59.85;30.00;;;;;;;;;;6339472;22;20014;-92
2022/03/28 17:07:16;;;;;;;60.30;28.95;;;;;;;;;;6340114;22;20327;-93
2022/03/28 17:09:42;;;;;;;71.40;31.77;;;;;;;;;;6339295;22;20013;-92
2022/03/28 17:12:09;;;;;;;67.15;32.08;;;;;;;;;;6313385;22;20007;-92
2022/03/28 17:14:45;;;;;;;77.00;32.70;;;;;;;;;;6338223;22;20011;-91
2022/03/28 17:17:12;;;;;;;81.85;34.15;;;;;;;;;;6339578;22;20006;-92
2022/03/28 17:19:47;;;;;;;89.00;40.10;;;;;;;;;;6338231;22;20521;-93
2022/03/28 17:22:18;;;;;;;95.65;44.85;;;;;;;;;;6338246;22;20036;-93
2022/03/28 17:24:44;;;;;;;87.75;42.88;;;;;;;;;;6336891;22;20094;-92
2022/03/28 17:27:18;;;;;;;87.97;42.30;;;;;;;;;;6312734;22;20427;-93
2022/03/28 17:29:44;;;;;;;92.97;44.22;;;;;;;;;;6339354;22;20003;-92
2022/03/28 17:32:10;;;;;;;84.72;41.70;;;;;;;;;;6339205;22;20041;-93
2022/03/28 17:34:55;;;;;;;94.95;47.22;;;;;;;;;;6338695;22;20341;-92
2022/03/28 17:37:22;;;;;;;97.25;44.35;;;;;;;;;;6338980;22;20017;-93
2022/03/28 17:39:54;;;;;;;98.30;48.22;;;;;;;;;;6339087;22;19999;-94
2022/03/28 17:42:21;;;;;;;95.13;45.83;;;;;;;;;;6338525;22;20002;-94
2022/03/28 17:45:01;;;;;;;98.35;46.28;;;;;;;;;;6338121;22;20487;-92
2022/03/28 17:47:28;;;;;;;91.03;44.13;;;;;;;;;;6339100;22;20081;-94
2022/03/28 17:50:03;;;;;;;99.68;43.58;;;;;;;;;;6313259;22;20014;-92
2022/03/28 17:52:30;;;;;;;83.03;40.55;;;;;;;;;;6338650;22;20002;-92
2022/03/28 17:55:11;;;;;;;87.43;41.20;;;;;;;;;;6311777;22;20467;-93
2022/03/28 17:57:38;;;;;;;81.45;38.17;;;;;;;;;;6313249;22;20068;-93
2022/03/28 18:00:05;;;;;;;89.00;40.25;;;;;;;;;;6339382;22;19998;-95
2022/03/28 18:02:32;;;;;;;81.75;38.03;;;;;;;;;;6312905;22;20014;-94
2022/03/28 18:07:49;;;;;;;86.07;39.92;;;;;;;;;;6340525;22;20013;-94
2022/03/28 18:10:15;;;;;;;79.75;38.03;;;;;;;;;;6339270;22;20010;-94
2022/03/28 18:12:42;;;;;;;77.82;37.08;;;;;;;;;;6338606;22;20060;-93
2022/03/28 18:15:19;;;;;;;100.47;40.20;;;;;;;;;;6339029;22;20014;-93
2022/03/28 18:17:46;;;;;;;99.38;41.92;;;;;;;;;;6340766;22;20006;-93
2022/03/28 18:20:21;;;;;;;84.35;37.83;;;;;;;;;;6339312;22;20011;-91
2022/03/28 18:22:47;;;;;;;91.90;39.67;;;;;;;;;;6340364;22;20113;-92
2022/03/28 18:25:15;;;;;;;90.72;37.42;;;;;;;;;;6340584;22;20051;-95
2022/03/28 18:27:45;;;;;;;91.18;38.33;;;;;;;;;;6338536;22;20007;-92
2022/03/28 18:30:13;;;;;;;93.53;40.13;;;;;;;;;;6339273;22;20010;-92
2022/03/28 18:32:39;;;;;;;84.55;37.92;;;;;;;;;;6338962;22;20007;-93
2022/03/28 18:35:06;;;;;;;78.80;35.90;;;;;;;;;;6336090;22;20438;-92
2022/03/28 18:37:38;;;;;;;85.35;38.17;;;;;;;;;;6339167;22;20003;-92
2022/03/28 18:40:05;;;;;;;89.93;37.85;;;;;;;;;;6338894;22;20075;-94
2022/03/28 18:42:38;;;;;;;84.88;34.28;;;;;;;;;;6337593;22;20415;-93
2022/03/28 18:45:05;;;;;;;68.78;31.77;;;;;;;;;;6337285;22;20002;-93
2022/03/28 18:47:33;;;;;;;62.90;30.35;;;;;;;;;;6337798;22;20003;-93
2022/03/28 18:50:03;;;;;;;65.00;30.63;;;;;;;;;;6338711;22;20086;-93
2022/03/28 18:52:32;;;;;;;76.32;31.75;;;;;;;;;;6337722;22;20007;-93
2022/03/28 18:54:58;;;;;;;76.07;32.63;;;;;;;;;;6337799;22;20009;-94
2022/03/28 18:57:26;;;;;;;67.88;30.08;;;;;;;;;;6336517;22;20010;-92
2022/03/28 18:59:53;;;;;;;71.60;31.63;;;;;;;;;;6337283;22;20072;-95
2022/03/28 19:02:31;;;;;;;68.80;30.63;;;;;;;;;;6340063;22;19999;-93
2022/03/28 19:04:58;;;;;;;59.75;29.83;;;;;;;;;;6337467;22;20429;-93
2022/03/28 19:07:34;;;;;;;61.42;28.05;;;;;;;;;;6336593;22;20474;-92
2022/03/28 19:10:00;;;;;;;59.05;28.30;;;;;;;;;;6337886;22;20057;-94
2022/03/28 19:12:32;;;;;;;61.28;28.85;;;;;;;;;;6337991;22;20393;-93
2022/03/28 19:14:58;;;;;;;57.42;28.42;;;;;;;;;;6337236;22;20077;-94
2022/03/28 19:17:38;;;;;;;65.43;28.67;;;;;;;;;;6337455;22;20052;-93
2022/03/28 19:20:05;;;;;;;61.85;27.92;;;;;;;;;;6337934;22;20022;-92
2022/03/28 19:22:32;;;;;;;62.50;29.45;;;;;;;;;;6331273;22;20476;-93
2022/03/28 19:25:00;;;;;;;59.15;28.05;;;;;;;;;;6338127;22;20427;-94
2022/03/28 19:27:29;;;;;;;55.88;25.98;;;;;;;;;;6338220;22;20081;-92
2022/03/28 19:29:56;;;;;;;53.42;26.48;;;;;;;;;;6337998;22;20007;-93
2022/03/28 19:32:23;;;;;;;57.03;25.88;;;;;;;;;;6338206;22;20007;-94
2022/03/28 19:37:33;;;;;;;61.00;26.15;;;;;;;;;;6339073;22;20090;-94
2022/03/28 19:40:00;;;;;;;56.08;25.85;;;;;;;;;;6337234;22;20339;-93
2022/03/28 19:42:28;;;;;;;51.00;24.30;;;;;;;;;;6337217;22;19998;-96
2022/03/28 19:44:54;;;;;;;57.22;25.67;;;;;;;;;;6338295;22;20003;-94
2022/03/28 19:47:33;;;;;;;54.40;24.98;;;;;;;;;;6337136;22;20082;-93
2022/03/28 19:50:01;;;;;;;60.25;25.48;;;;;;;;;;6338403;22;20010;-93
2022/03/28 19:52:37;;;;;;;54.53;24.20;;;;;;;;;;6338250;22;20034;-95
2022/03/28 19:55:05;;;;;;;50.20;22.65;;;;;;;;;;6336797;22;20007;-95
2022/03/28 19:57:33;;;;;;;56.55;23.52;;;;;;;;;;6338104;22;20017;-93
2022/03/28 19:59:59;;;;;;;43.88;22.85;;;;;;;;;;6336944;22;20316;-93
2022/03/28 20:02:26;;;;;;;43.65;20.60;;;;;;;;;;6337098;22;20003;-93
2022/03/28 20:04:53;;;;;;;48.78;20.70;;;;;;;;;;6337570;22;20009;-93
2022/03/28 20:10:16;;;;;;;42.47;18.63;;;;;;;;;;6339559;22;20006;-95
2022/03/28 20:13:00;;;;;;;47.80;20.15;;;;;;;;;;6338207;22;20003;-92
2022/03/28 20:15:27;;;;;;;46.10;20.45;;;;;;;;;;6337441;22;20013;-92
2022/03/28 20:20:53;;;;;;;24.20;9.68;;;;;;;;;;6340310;22;20055;-92
2022/03/28 20:23:30;;;;;;;16.00;7.65;;;;;;;;;;6340265;22;20030;-92
2022/03/28 20:25:56;;;;;;;21.80;9.30;;;;;;;;;;6338947;22;20007;-93
2022/03/28 20:28:58;;;;;;;22.67;10.15;;;;;;;;;;6339044;22;20007;-93
2022/03/28 20:31:24;;;;;;;21.45;8.73;;;;;;;;;;6190120;23;20009;-94
2022/03/28 20:33:57;;;;;;;17.98;7.18;;;;;;;;;;6215066;23;20079;-93
2022/03/28 20:36:23;;;;;;;24.27;8.45;;;;;;;;;;6214318;23;20017;-93
2022/03/28 20:39:01;;;;;;;13.52;6.25;;;;;;;;;;6239358;22;20064;-93
2022/03/28 20:41:27;;;;;;;17.65;7.68;;;;;;;;;;6341086;22;20002;-93